createdAt,value
2023-01-13T00:01:25.284Z,-7.15
2023-01-13T00:03:52.772Z,-7.13
2023-01-13T00:06:22.626Z,-7.27
2023-01-13T00:08:50.781Z,-7.14
2023-01-13T00:11:19.457Z,-7.17
2023-01-13T00:13:46.799Z,-7.21
2023-01-13T00:16:16.736Z,-7.30
2023-01-13T00:18:44.666Z,-7.16
2023-01-13T00:21:23.644Z,-7.14
2023-01-13T00:23:54.114Z,-7.21
2023-01-13T00:26:23.859Z,-7.16
2023-01-13T00:28:51.582Z,-7.24
2023-01-13T00:31:20.951Z,-7.14
2023-01-13T00:33:51.376Z,-7.27
2023-01-13T00:36:20.950Z,-7.11
2023-01-13T00:38:48.580Z,-7.22
2023-01-13T00:41:18.392Z,-7.34
2023-01-13T00:43:46.320Z,-7.10
2023-01-13T00:46:15.707Z,-7.15
2023-01-13T00:48:44.819Z,-7.19
2023-01-13T00:51:15.193Z,-7.15
2023-01-13T00:53:45.095Z,-7.19
2023-01-13T00:56:21.889Z,-7.22
2023-01-13T00:58:56.687Z,-7.06
2023-01-13T01:01:24.774Z,-7.06
2023-01-13T01:03:53.724Z,-7.04
2023-01-13T01:06:24.296Z,-7.03
2023-01-13T01:08:52.783Z,-7.14
2023-01-13T01:11:25.668Z,-7.04
2023-01-13T01:13:55.405Z,-7.13
2023-01-13T01:16:24.844Z,-7.04
2023-01-13T01:18:53.433Z,-7.03
2023-01-13T01:21:22.195Z,-7.03
2023-01-13T01:23:49.220Z,-7.05
2023-01-13T01:26:19.783Z,-7.04
2023-01-13T01:28:47.574Z,-7.10
2023-01-13T01:31:17.861Z,-7.08
2023-01-13T01:33:47.633Z,-7.05
2023-01-13T01:36:17.818Z,-7.22
2023-01-13T01:38:45.159Z,-7.04
2023-01-13T01:41:18.387Z,-7.25
2023-01-13T01:44:01.753Z,-7.02
2023-01-13T01:46:39.243Z,-7.04
2023-01-13T01:49:20.241Z,-7.05
2023-01-13T01:51:49.749Z,-7.12
2023-01-13T01:54:23.639Z,-7.01
2023-01-13T01:56:51.075Z,-7.24
2023-01-13T01:59:18.830Z,-7.25
2023-01-13T02:01:48.726Z,-7.04
2023-01-13T02:04:21.335Z,-7.03
2023-01-13T02:06:50.561Z,-7.16
2023-01-13T02:09:17.731Z,-7.29
2023-01-13T02:12:03.446Z,-7.02
2023-01-13T02:14:32.854Z,-7.02
2023-01-13T02:17:22.695Z,-7.01
2023-01-13T02:20:14.317Z,-7.02
2023-01-13T02:23:05.804Z,-7.01
2023-01-13T02:25:38.704Z,-7.04
2023-01-13T02:29:03.891Z,-7.02
2023-01-13T02:31:42.193Z,-7.03
2023-01-13T02:34:25.917Z,-7.26
2023-01-13T02:37:03.630Z,-7.02
2023-01-13T02:40:19.912Z,-7.04
2023-01-13T02:43:33.136Z,-7.08
2023-01-13T02:46:15.305Z,-7.06
2023-01-13T02:48:46.095Z,-7.06
2023-01-13T02:51:17.805Z,-7.08
2023-01-13T02:54:01.197Z,-7.19
2023-01-13T02:56:31.123Z,-7.09
2023-01-13T02:59:00.339Z,-7.23
2023-01-13T03:01:29.892Z,-7.13
2023-01-13T03:03:57.021Z,-7.41
2023-01-13T03:07:13.041Z,-7.21
2023-01-13T03:09:45.440Z,-7.00
2023-01-13T03:12:34.949Z,-7.64
2023-01-13T03:15:15.979Z,-7.02
2023-01-13T03:18:05.764Z,-6.99
2023-01-13T03:20:48.031Z,-7.02
2023-01-13T03:23:28.318Z,-7.00
2023-01-13T03:26:19.728Z,-7.02
2023-01-13T03:28:54.600Z,-7.26
2023-01-13T03:31:28.360Z,-7.28
2023-01-13T03:34:00.609Z,-7.15
2023-01-13T03:36:30.782Z,-7.23
2023-01-13T03:39:00.390Z,-7.05
2023-01-13T03:41:38.317Z,-7.17
2023-01-13T03:44:28.236Z,-7.22
2023-01-13T03:47:23.797Z,-7.18
2023-01-13T03:50:07.026Z,-7.03
2023-01-13T03:52:43.860Z,-7.22
2023-01-13T03:55:16.368Z,-7.04
2023-01-13T03:57:53.739Z,-7.05
2023-01-13T04:00:26.485Z,-7.42
2023-01-13T04:03:05.412Z,-7.10
2023-01-13T04:05:36.593Z,-7.12
2023-01-13T04:08:09.511Z,-7.17
2023-01-13T04:10:46.998Z,-7.17
2023-01-13T04:13:19.209Z,-7.17
2023-01-13T04:15:47.342Z,-7.16
2023-01-13T04:18:24.022Z,-7.16
2023-01-13T04:20:53.243Z,-7.30
2023-01-13T04:23:21.342Z,-7.26
2023-01-13T04:25:49.374Z,-7.32
2023-01-13T04:28:19.233Z,-7.17
2023-01-13T04:30:47.581Z,-7.25
2023-01-13T04:33:16.316Z,-7.17
2023-01-13T04:35:44.800Z,-7.14
2023-01-13T04:38:19.897Z,-7.14
2023-01-13T04:40:47.503Z,-7.21
2023-01-13T04:43:15.988Z,-7.21
2023-01-13T04:45:43.953Z,-7.14
2023-01-13T04:48:11.145Z,-7.26
2023-01-13T04:50:38.548Z,-7.34
2023-01-13T04:53:06.077Z,-7.27
2023-01-13T04:55:33.395Z,-7.21
2023-01-13T04:58:09.296Z,-7.23
2023-01-13T05:00:37.153Z,-7.37
2023-01-13T05:03:04.958Z,-7.32
2023-01-13T05:05:32.367Z,-7.19
2023-01-13T05:07:59.553Z,-7.37
2023-01-13T05:10:27.508Z,-7.24
2023-01-13T05:13:13.361Z,-7.55
2023-01-13T05:16:02.933Z,-7.44
2023-01-13T05:18:31.605Z,-7.27
2023-01-13T05:20:59.871Z,-7.40
2023-01-13T05:23:45.908Z,-7.46
2023-01-13T05:26:12.975Z,-7.36
2023-01-13T05:28:40.029Z,-7.18
2023-01-13T05:31:07.213Z,-7.23
2023-01-13T05:33:35.778Z,-7.31
2023-01-13T05:36:04.066Z,-7.31
2023-01-13T05:38:31.273Z,-7.30
2023-01-13T05:41:18.356Z,-7.40
2023-01-13T05:43:45.565Z,-7.26
2023-01-13T05:46:13.491Z,-7.18
2023-01-13T05:48:42.736Z,-7.24
2023-01-13T05:51:11.939Z,-7.18
2023-01-13T05:53:41.144Z,-7.55
2023-01-13T05:56:09.254Z,-7.32
2023-01-13T05:58:36.781Z,-7.18
2023-01-13T06:01:07.564Z,-7.19
2023-01-13T06:03:57.259Z,-7.33
2023-01-13T06:06:40.373Z,-7.43
2023-01-13T06:09:08.198Z,-7.91
2023-01-13T06:11:35.403Z,-7.28
2023-01-13T06:14:02.568Z,-7.27
2023-01-13T06:16:29.605Z,-7.18
2023-01-13T06:18:56.729Z,-7.12
2023-01-13T06:21:23.733Z,-7.13
2023-01-13T06:23:50.737Z,-7.42
2023-01-13T06:26:20.967Z,-7.16
2023-01-13T06:28:50.145Z,-7.37
2023-01-13T06:31:17.597Z,-7.32
2023-01-13T06:34:04.981Z,-7.16
2023-01-13T06:36:38.502Z,-7.15
2023-01-13T06:39:06.810Z,-7.25
2023-01-13T06:41:52.610Z,-7.29
2023-01-13T06:44:20.887Z,-7.06
2023-01-13T06:46:48.128Z,-7.01
2023-01-13T06:51:42.745Z,-7.21
2023-01-13T06:54:09.932Z,-7.10
2023-01-13T06:56:36.928Z,-7.30
2023-01-13T06:59:04.101Z,-7.28
2023-01-13T07:01:31.298Z,-7.10
2023-01-13T07:03:58.464Z,-7.12
2023-01-13T07:06:25.557Z,-7.09
2023-01-13T07:08:52.694Z,-7.17
2023-01-13T07:11:20.334Z,-7.28
2023-01-13T07:14:22.794Z,-7.06
2023-01-13T07:16:49.915Z,-7.06
2023-01-13T07:19:23.329Z,-7.04
2023-01-13T07:21:51.949Z,-7.01
2023-01-13T07:24:19.494Z,-7.11
2023-01-13T07:26:46.687Z,-7.12
2023-01-13T07:29:13.892Z,-7.11
2023-01-13T07:31:41.021Z,-6.99
2023-01-13T07:34:08.074Z,-7.02
2023-01-13T07:36:35.337Z,-7.16
2023-01-13T07:39:02.386Z,-6.93
2023-01-13T07:41:48.175Z,-6.88
2023-01-13T07:44:15.297Z,-6.99
2023-01-13T07:46:42.590Z,-6.90
2023-01-13T07:49:10.412Z,-6.86
2023-01-13T07:51:39.128Z,-6.85
2023-01-13T07:54:06.685Z,-6.87
2023-01-13T07:56:33.989Z,-6.96
2023-01-13T07:59:01.613Z,-6.89
2023-01-13T08:01:29.490Z,-7.04
2023-01-13T08:03:56.582Z,-7.01
2023-01-13T08:06:23.668Z,-7.13
2023-01-13T08:08:51.022Z,-7.00
2023-01-13T08:11:18.912Z,-6.97
2023-01-13T08:13:45.876Z,-6.98
2023-01-13T08:16:14.933Z,-7.13
2023-01-13T08:18:42.562Z,-6.95
2023-01-13T08:21:14.572Z,-6.88
2023-01-13T08:23:43.377Z,-6.96
2023-01-13T08:26:13.521Z,-6.93
2023-01-13T08:28:40.961Z,-6.83
2023-01-13T08:31:11.550Z,-6.83
2023-01-13T08:33:39.093Z,-6.87
2023-01-13T08:36:08.683Z,-6.83
2023-01-13T08:38:36.404Z,-6.86
2023-01-13T08:41:14.589Z,-6.85
2023-01-13T08:43:41.991Z,-6.84
2023-01-13T08:46:09.241Z,-6.96
2023-01-13T08:48:36.466Z,-6.79
2023-01-13T08:51:08.982Z,-6.85
2023-01-13T08:53:36.161Z,-6.88
2023-01-13T08:56:08.532Z,-6.75
2023-01-13T08:58:35.565Z,-6.82
2023-01-13T09:01:06.822Z,-6.91
2023-01-13T09:03:34.173Z,-6.71
2023-01-13T09:06:01.243Z,-6.75
2023-01-13T09:08:28.321Z,-6.74
2023-01-13T09:10:55.412Z,-6.68
2023-01-13T09:13:22.412Z,-6.64
2023-01-13T09:15:49.887Z,-6.69
2023-01-13T09:18:17.177Z,-6.55
2023-01-13T09:20:44.884Z,-6.83
2023-01-13T09:23:11.944Z,-6.58
2023-01-13T09:25:39.837Z,-6.68
2023-01-13T09:28:08.776Z,-6.91
2023-01-13T09:30:37.879Z,-6.59
2023-01-13T09:33:23.438Z,-6.80
2023-01-13T09:35:50.537Z,-6.72
2023-01-13T09:38:17.582Z,-6.47
2023-01-13T09:40:48.633Z,-6.43
2023-01-13T09:43:48.528Z,-6.39
2023-01-13T09:46:40.253Z,-6.42
2023-01-13T09:49:15.989Z,-6.44
2023-01-13T09:51:50.263Z,-6.61
2023-01-13T09:54:38.752Z,-6.76
2023-01-13T09:57:11.365Z,-6.51
2023-01-13T09:59:39.470Z,-6.53
2023-01-13T10:02:27.268Z,-6.48
2023-01-13T10:05:05.233Z,-6.43
2023-01-13T10:07:37.279Z,-6.38
2023-01-13T10:10:04.782Z,-6.53
2023-01-13T10:12:50.838Z,-6.41
2023-01-13T10:15:23.263Z,-6.43
2023-01-13T10:18:17.336Z,-6.53
2023-01-13T10:20:59.441Z,-6.40
2023-01-13T10:23:35.497Z,-6.33
2023-01-13T10:26:28.017Z,-6.31
2023-01-13T10:28:56.148Z,-6.26
2023-01-13T10:31:25.371Z,-6.27
2023-01-13T10:34:00.503Z,-6.19
2023-01-13T10:36:27.977Z,-6.27
2023-01-13T10:39:08.052Z,-6.30
2023-01-13T10:41:36.392Z,-6.47
2023-01-13T10:44:14.685Z,-6.25
2023-01-13T10:46:59.283Z,-6.30
2023-01-13T10:49:29.300Z,-6.24
2023-01-13T10:51:56.362Z,-6.25
2023-01-13T10:54:25.333Z,-6.20
2023-01-13T10:57:15.177Z,-6.24
2023-01-13T10:59:42.186Z,-6.12
2023-01-13T11:02:24.303Z,-6.21
2023-01-13T11:04:55.273Z,-6.27
2023-01-13T11:07:30.500Z,-6.22
2023-01-13T11:10:09.730Z,-6.21
2023-01-13T11:12:50.955Z,-6.21
2023-01-13T11:15:23.874Z,-6.45
2023-01-13T11:18:02.030Z,-6.44
2023-01-13T11:20:37.094Z,-6.23
2023-01-13T11:23:22.095Z,-6.09
2023-01-13T11:25:55.167Z,-6.12
2023-01-13T11:28:57.220Z,-6.26
2023-01-13T11:31:43.220Z,-6.35
2023-01-13T11:34:35.635Z,-6.16
2023-01-13T11:37:13.005Z,-6.20
2023-01-13T11:40:04.049Z,-6.15
2023-01-13T11:42:42.020Z,-6.21
2023-01-13T11:45:22.214Z,-6.17
2023-01-13T11:47:51.628Z,-6.20
2023-01-13T11:50:42.736Z,-6.16
2023-01-13T11:53:38.033Z,-6.37
2023-01-13T11:56:53.019Z,-6.17
2023-01-13T11:59:40.499Z,-6.20
2023-01-13T12:02:23.064Z,-6.16
2023-01-13T12:05:23.852Z,-6.22
2023-01-13T12:08:18.359Z,-6.11
2023-01-13T12:11:00.303Z,-6.14
2023-01-13T12:13:45.931Z,-6.14
2023-01-13T12:16:25.972Z,-6.14
2023-01-13T12:19:31.113Z,-6.13
2023-01-13T12:22:23.960Z,-6.11
2023-01-13T12:25:14.575Z,-6.09
2023-01-13T12:27:41.702Z,-6.09
2023-01-13T12:30:40.871Z,-6.07
2023-01-13T12:33:26.037Z,-6.11
2023-01-13T12:36:15.495Z,-6.23
2023-01-13T12:38:52.939Z,-6.11
2023-01-13T12:41:32.729Z,-6.04
2023-01-13T12:44:18.882Z,-6.09
2023-01-13T12:46:56.257Z,-6.03
2023-01-13T12:49:32.546Z,-6.03
2023-01-13T12:52:14.707Z,-6.04
2023-01-13T12:54:42.562Z,-6.04
2023-01-13T12:57:32.429Z,-6.06
2023-01-13T13:00:28.663Z,-6.12
2023-01-13T13:03:14.729Z,-6.04
2023-01-13T13:06:17.871Z,-6.03
2023-01-13T13:08:51.096Z,-6.05
2023-01-13T13:11:40.066Z,-6.04
2023-01-13T13:14:12.543Z,-6.08
2023-01-13T13:16:53.164Z,-6.08
2023-01-13T13:19:20.346Z,-6.10
2023-01-13T13:22:12.588Z,-6.08
2023-01-13T13:25:03.828Z,-6.42
2023-01-13T13:27:37.578Z,-6.09
2023-01-13T13:30:15.218Z,-6.16
2023-01-13T13:33:16.684Z,-6.11
2023-01-13T13:35:52.345Z,-6.13
2023-01-13T13:39:14.441Z,-6.12
2023-01-13T13:42:04.082Z,-6.35
2023-01-13T13:44:59.350Z,-6.25
2023-01-13T13:47:34.547Z,-6.15
2023-01-13T13:50:09.000Z,-6.09
2023-01-13T13:52:42.807Z,-6.09
2023-01-13T13:55:20.303Z,-6.08
2023-01-13T13:57:50.784Z,-6.14
2023-01-13T14:00:30.776Z,-6.07
2023-01-13T14:03:20.057Z,-6.07
2023-01-13T14:06:03.325Z,-6.07
2023-01-13T14:08:36.572Z,-6.14
2023-01-13T14:11:27.582Z,-6.23
2023-01-13T14:14:27.392Z,-6.08
2023-01-13T14:16:58.832Z,-6.27
2023-01-13T14:19:30.854Z,-6.06
2023-01-13T14:22:01.926Z,-6.10
2023-01-13T14:24:30.624Z,-6.11
2023-01-13T14:27:18.578Z,-6.08
2023-01-13T14:29:45.872Z,-5.95
2023-01-13T14:32:18.580Z,-5.94
2023-01-13T14:34:46.008Z,-5.98
2023-01-13T14:37:49.044Z,-5.92
2023-01-13T14:40:36.262Z,-5.87
2023-01-13T14:43:10.589Z,-5.93
2023-01-13T14:45:38.001Z,-5.96
2023-01-13T14:48:09.559Z,-5.88
2023-01-13T14:50:36.956Z,-5.93
2023-01-13T14:53:05.193Z,-5.98
2023-01-13T14:55:38.665Z,-5.95
2023-01-13T14:58:24.824Z,-5.81
2023-01-13T15:01:40.578Z,-5.90
2023-01-13T15:04:27.152Z,-5.83
2023-01-13T15:06:57.159Z,-6.03
2023-01-13T15:09:29.037Z,-5.80
2023-01-13T15:11:59.033Z,-5.88
2023-01-13T15:14:35.725Z,-5.86
2023-01-13T15:17:04.126Z,-5.86
2023-01-13T15:19:31.658Z,-5.79
2023-01-13T15:21:58.712Z,-6.14
2023-01-13T15:24:25.771Z,-5.75
2023-01-13T15:26:52.975Z,-5.82
2023-01-13T15:29:20.525Z,-5.70
2023-01-13T15:31:47.564Z,-5.71
2023-01-13T15:34:14.781Z,-5.88
2023-01-13T15:36:42.298Z,-5.83
2023-01-13T15:39:12.606Z,-5.70
2023-01-13T15:41:58.396Z,-5.72
2023-01-13T15:44:43.855Z,-5.71
2023-01-13T15:47:10.990Z,-5.97
2023-01-13T15:49:41.494Z,-5.69
2023-01-13T15:52:26.454Z,-5.65
2023-01-13T15:54:54.377Z,-5.63
2023-01-13T15:57:22.785Z,-5.71
2023-01-13T15:59:50.247Z,-5.86
2023-01-13T16:02:18.649Z,-6.00
2023-01-13T16:04:46.072Z,-5.86
2023-01-13T16:07:16.302Z,-5.73
2023-01-13T16:09:43.635Z,-5.65
2023-01-13T16:12:12.224Z,-5.87
2023-01-13T16:14:42.928Z,-5.66
2023-01-13T16:17:19.314Z,-6.08
2023-01-13T16:19:46.911Z,-5.65
2023-01-13T16:22:15.647Z,-5.64
2023-01-13T16:24:43.403Z,-5.66
2023-01-13T16:27:24.313Z,-5.69
2023-01-13T16:29:52.590Z,-5.62
2023-01-13T16:32:22.441Z,-5.68
2023-01-13T16:34:50.117Z,-5.90
2023-01-13T16:37:21.554Z,-5.64
2023-01-13T16:39:48.705Z,-5.65
2023-01-13T16:42:16.046Z,-5.68
2023-01-13T16:44:44.215Z,-5.79
2023-01-13T16:47:16.581Z,-5.82
2023-01-13T16:49:44.502Z,-6.02
2023-01-13T16:52:11.876Z,-5.70
2023-01-13T16:54:39.055Z,-5.70
2023-01-13T16:57:07.895Z,-5.65
2023-01-13T16:59:35.007Z,-5.67
2023-01-13T17:02:02.351Z,-5.63
2023-01-13T17:04:29.559Z,-5.91
2023-01-13T17:07:03.514Z,-5.94
2023-01-13T17:09:30.922Z,-5.78
2023-01-13T17:11:58.904Z,-5.66
2023-01-13T17:14:26.604Z,-5.69
2023-01-13T17:16:58.804Z,-5.66
2023-01-13T17:19:26.495Z,-5.78
2023-01-13T17:21:54.036Z,-5.63
2023-01-13T17:24:21.643Z,-5.71
2023-01-13T17:26:52.249Z,-5.64
2023-01-13T17:29:23.141Z,-5.78
2023-01-13T17:31:51.096Z,-5.81
2023-01-13T17:34:18.637Z,-5.61
2023-01-13T17:36:45.790Z,-5.62
2023-01-13T17:39:18.005Z,-5.82
2023-01-13T17:41:45.789Z,-5.56
2023-01-13T17:44:18.404Z,-5.56
2023-01-13T17:46:45.849Z,-5.61
2023-01-13T17:49:14.249Z,-5.64
2023-01-13T17:51:41.829Z,-5.67
2023-01-13T17:54:12.640Z,-5.56
2023-01-13T17:56:41.304Z,-5.52
2023-01-13T17:59:10.594Z,-5.52
2023-01-13T18:01:38.276Z,-5.58
2023-01-13T18:04:07.030Z,-5.51
2023-01-13T18:06:34.102Z,-5.55
2023-01-13T18:09:01.244Z,-5.54
2023-01-13T18:11:28.570Z,-5.52
2023-01-13T18:14:00.393Z,-5.64
2023-01-13T18:16:30.233Z,-5.50
2023-01-13T18:19:18.206Z,-5.48
2023-01-13T18:22:04.401Z,-5.45
2023-01-13T18:24:50.343Z,-5.60
2023-01-13T18:27:22.833Z,-5.50
2023-01-13T18:29:52.627Z,-5.54
2023-01-13T18:32:20.576Z,-5.49
2023-01-13T18:34:48.015Z,-5.61
2023-01-13T18:37:17.614Z,-5.46
2023-01-13T18:39:44.783Z,-5.59
2023-01-13T18:42:30.250Z,-5.66
2023-01-13T18:44:58.031Z,-5.44
2023-01-13T18:47:26.435Z,-5.54
2023-01-13T18:49:53.502Z,-5.42
2023-01-13T18:52:21.263Z,-5.43
2023-01-13T18:54:48.833Z,-5.60
2023-01-13T18:57:17.322Z,-5.41
2023-01-13T18:59:44.588Z,-5.45
2023-01-13T19:02:17.697Z,-5.38
2023-01-13T19:04:45.110Z,-5.50
2023-01-13T19:07:13.378Z,-5.39
2023-01-13T19:09:42.463Z,-5.54
2023-01-13T19:12:12.101Z,-5.33
2023-01-13T19:14:41.764Z,-5.30
2023-01-13T19:17:11.756Z,-5.31
2023-01-13T19:19:44.640Z,-5.30
2023-01-13T19:22:13.989Z,-5.30
2023-01-13T19:24:44.100Z,-5.33
2023-01-13T19:27:14.859Z,-5.28
2023-01-13T19:29:51.949Z,-5.35
2023-01-13T19:32:23.280Z,-5.41
2023-01-13T19:34:51.374Z,-5.33
2023-01-13T19:37:19.825Z,-5.39
2023-01-13T19:39:47.374Z,-5.35
2023-01-13T19:42:33.346Z,-5.41
2023-01-13T19:45:19.251Z,-5.33
2023-01-13T19:47:46.558Z,-5.47
2023-01-13T19:50:14.827Z,-5.46
2023-01-13T19:52:43.200Z,-5.33
2023-01-13T19:55:12.527Z,-5.41
2023-01-13T19:57:40.962Z,-5.31
2023-01-13T20:00:09.601Z,-5.30
2023-01-13T20:02:49.217Z,-5.31
2023-01-13T20:05:21.448Z,-5.26
2023-01-13T20:07:50.248Z,-5.28
2023-01-13T20:10:21.843Z,-5.25
2023-01-13T20:12:49.202Z,-5.23
2023-01-13T20:15:16.717Z,-5.60
2023-01-13T20:17:44.171Z,-5.76
2023-01-13T20:20:12.016Z,-5.22
2023-01-13T20:22:40.344Z,-5.18
2023-01-13T20:25:08.744Z,-5.27
2023-01-13T20:27:37.181Z,-5.27
2023-01-13T20:30:06.096Z,-5.16
2023-01-13T20:32:33.046Z,-5.31
2023-01-13T20:35:02.239Z,-5.16
2023-01-13T20:37:31.249Z,-5.45
2023-01-13T20:40:01.628Z,-5.31
2023-01-13T20:42:30.537Z,-5.40
2023-01-13T20:45:01.388Z,-5.13
2023-01-13T20:47:30.723Z,-5.23
2023-01-13T20:49:59.125Z,-5.10
2023-01-13T20:52:26.303Z,-5.29
2023-01-13T20:54:53.395Z,-5.14
2023-01-13T20:57:20.484Z,-5.28
2023-01-13T20:59:47.738Z,-5.26
2023-01-13T21:02:16.779Z,-5.12
2023-01-13T21:04:44.043Z,-5.20
2023-01-13T21:07:11.471Z,-5.18
2023-01-13T21:09:38.564Z,-5.39
2023-01-13T21:12:24.661Z,-4.96
2023-01-13T21:15:10.765Z,-5.35
2023-01-13T21:17:56.334Z,-4.95
2023-01-13T21:20:23.447Z,-4.93
2023-01-13T21:22:50.478Z,-5.11
2023-01-13T21:25:18.903Z,-5.19
2023-01-13T21:27:46.080Z,-5.35
2023-01-13T21:30:15.102Z,-4.94
2023-01-13T21:32:43.465Z,-4.94
2023-01-13T21:35:11.392Z,-5.08
2023-01-13T21:37:39.937Z,-5.08
2023-01-13T21:40:10.372Z,-4.89
2023-01-13T21:42:56.079Z,-4.98
2023-01-13T21:45:41.893Z,-4.98
2023-01-13T21:48:09.319Z,-4.96
2023-01-13T21:50:37.379Z,-5.05
2023-01-13T21:53:05.265Z,-4.92
2023-01-13T21:55:33.033Z,-4.98
2023-01-13T21:58:15.140Z,-4.90
2023-01-13T22:00:44.033Z,-4.96
2023-01-13T22:03:13.131Z,-4.90
2023-01-13T22:05:41.580Z,-4.91
2023-01-13T22:08:10.953Z,-5.13
2023-01-13T22:10:57.403Z,-4.94
2023-01-13T22:13:44.017Z,-4.89
2023-01-13T22:16:11.150Z,-5.28
2023-01-13T22:18:38.555Z,-5.01
2023-01-13T22:21:05.735Z,-4.84
2023-01-13T22:23:32.756Z,-4.81
2023-01-13T22:26:04.058Z,-5.01
2023-01-13T22:28:44.303Z,-4.98
2023-01-13T22:31:17.132Z,-4.77
2023-01-13T22:33:48.239Z,-5.12
2023-01-13T22:36:15.962Z,-5.12
2023-01-13T22:38:43.089Z,-4.78
2023-01-13T22:41:10.602Z,-4.75
2023-01-13T22:43:38.978Z,-5.03
2023-01-13T22:46:11.266Z,-4.68
2023-01-13T22:48:39.659Z,-4.73
2023-01-13T22:51:09.653Z,-4.73
2023-01-13T22:53:37.548Z,-4.66
2023-01-13T22:56:05.487Z,-4.70
2023-01-13T22:58:32.653Z,-4.72
2023-01-13T23:01:13.837Z,-4.86
2023-01-13T23:03:42.153Z,-4.64
2023-01-13T23:06:09.237Z,-4.61
2023-01-13T23:08:36.647Z,-4.60
2023-01-13T23:11:06.978Z,-4.72
2023-01-13T23:13:34.169Z,-4.59
2023-01-13T23:16:05.401Z,-4.69
2023-01-13T23:18:33.257Z,-4.60
2023-01-13T23:21:10.175Z,-4.61
2023-01-13T23:23:38.188Z,-4.94
2023-01-13T23:26:07.028Z,-4.73
2023-01-13T23:28:35.927Z,-4.59
2023-01-13T23:31:08.304Z,-4.80
2023-01-13T23:33:37.710Z,-4.76
2023-01-13T23:36:06.875Z,-4.56
2023-01-13T23:38:34.131Z,-4.77
2023-01-13T23:41:01.426Z,-5.14
2023-01-13T23:43:28.558Z,-4.56
2023-01-13T23:46:07.468Z,-4.52
2023-01-13T23:48:35.557Z,-4.73
2023-01-13T23:51:06.278Z,-4.53
2023-01-13T23:53:40.214Z,-4.63
2023-01-13T23:56:11.595Z,-4.77
2023-01-13T23:58:38.535Z,-4.50
